WetterOnline ( http://www.wetteronline.de )

Wetter aktuell Hittbergen

Aktuelles Wetter: Boizenburg (46m)

6-stündlich | Neueste Meldungen
Ortszeit Temperatur Wetter
Sa, 24.02. 19:00 -2.2° C fast wolkenlos
Sa, 24.02. 13:00 0.4° C bewölkt
Sa, 24.02. 7:00 -1.8° C bedeckt
Sa, 24.02. 1:00 -4.5° C fast wolkenlos
Fr, 23.02. 19:00 -2.6° C wolkenlos
Fr, 23.02. 13:00 -1.1° C leicht bewölkt
Fr, 23.02. 7:00 -4.0° C wolkenlos
Fr, 23.02. 1:00 -0.2° C bedeckt
Ortszeit Temperatur Wetter
Sa, 24.02. 22:30 -4.4° C wolkenlos
Sa, 24.02. 22:10 -4.5° C fast wolkenlos
Sa, 24.02. 22:00 -4.3° C leicht bewölkt
Sa, 24.02. 21:50 -4.3° C leicht bewölkt
Sa, 24.02. 21:40 -3.9° C leicht bewölkt
Sa, 24.02. 21:30 -3.9° C wolkig
Sa, 24.02. 21:00 -3.5° C leicht bewölkt
Ortszeit Relative Feuchte Sichtweite
Sa, 24.02. 19:00 63% 65 km
Sa, 24.02. 13:00 50% 30 km
Sa, 24.02. 7:00 79% 18 km
Sa, 24.02. 1:00 77% 18 km
Fr, 23.02. 19:00 61% 21 km
Fr, 23.02. 13:00 66% 10 km
Fr, 23.02. 7:00 83% 18 km
Fr, 23.02. 1:00 84% 11 km
Ortszeit Relative Feuchte Sichtweite
Sa, 24.02. 22:30 69% 50 km
Sa, 24.02. 22:10 69% -
Sa, 24.02. 22:00 69% 55 km
Sa, 24.02. 21:50 69% -
Sa, 24.02. 21:40 67% -
Sa, 24.02. 21:30 69% 60 km
Sa, 24.02. 21:00 69% 60 km
Ortszeit Niederschlagsmenge Niederschlagsart
Sa, 24.02. 19:00 0.0 l/m2 in 12 Std. -
Sa, 24.02. 13:00 0.0 l/m2 in 6 Std. -
Sa, 24.02. 7:00 0.0 l/m2 in 12 Std. -
Sa, 24.02. 1:00 0.0 l/m2 in 6 Std. -
Fr, 23.02. 19:00 0.0 l/m2 in 12 Std. -
Fr, 23.02. 13:00 0.0 l/m2 in 6 Std. -
Fr, 23.02. 7:00 0.0 l/m2 in 12 Std. -
Fr, 23.02. 1:00 0.0 l/m2 in 6 Std. -
Ortszeit Niederschlagsmenge Niederschlagsart
Sa, 24.02. 22:30 0.0 l/m2 in 1 Std. -
Sa, 24.02. 22:10 keine Meldung -
Sa, 24.02. 22:00 0.0 l/m2 in 1 Std. -
Sa, 24.02. 21:50 keine Meldung -
Sa, 24.02. 21:40 keine Meldung -
Sa, 24.02. 21:30 0.0 l/m2 in 1 Std. -
Sa, 24.02. 21:00 0.0 l/m2 in 1 Std. -
Ortszeit Stärke Spitze Richtung
km/h Bft. km/h Grad Sektor
Sa, 24.02. 19:00 22 4 43 60° NO
Sa, 24.02. 13:00 26 4 44 80° O
Sa, 24.02. 7:00 9 2 15 20° N
Sa, 24.02. 1:00 9 2 22 80° O
Fr, 23.02. 19:00 14 3 29 70° O
Fr, 23.02. 13:00 17 3 35 70° O
Fr, 23.02. 7:00 11 2 29 60° NO
Fr, 23.02. 1:00 17 3 26 60° NO
Ortszeit Stärke Spitze Richtung
km/h Bft. km/h Grad Sektor
Sa, 24.02. 22:30 15 3 20 70° O
Sa, 24.02. 22:10 15 3 - 70° O
Sa, 24.02. 22:00 14 3 25 70° O
Sa, 24.02. 21:50 14 3 - 70° O
Sa, 24.02. 21:40 17 3 - 70° O
Sa, 24.02. 21:30 17 3 24 70° O
Sa, 24.02. 21:00 17 3 30 70° O
Ortszeit Untergrenze Bedeckung Gattung
total tief tief mittel hoch
Sa, 24.02. 19:00 5100 m 1/8 1/8 - - -
Sa, 24.02. 13:00 1350 m 7/8 7/8 - - -
Sa, 24.02. 7:00 540 m 8/8 8/8 - - -
Sa, 24.02. 1:00 4800 m 1/8 1/8 - - -
Fr, 23.02. 19:00 5100 m 0/8 0/8 - - -
Fr, 23.02. 13:00 720 m 2/8 1/8 - - -
Fr, 23.02. 7:00 - 0/8 0/8 - - -
Fr, 23.02. 1:00 1320 m 8/8 8/8 - - -
Ortszeit Bedeckungsgrad in Achtel und Wolkenuntergrenze
Sa, 24.02. 22:30 keine Wolken
Sa, 24.02. 22:10 1(4800m)
Sa, 24.02. 22:00 3(4800m)
Sa, 24.02. 21:50 3(4800m)
Sa, 24.02. 21:40 1(3900m) 2(4800m) 2(5700m)
Sa, 24.02. 21:30 2(3900m) 5(4800m) 5(6000m)
Sa, 24.02. 21:00 3(4800m)
Ortszeit Luftdruck NN (hPa) Tendenz (hPa in 3 Std.)
Sa, 24.02. 19:00 1033 + 1,0
Sa, 24.02. 13:00 1032 + 0,3
Sa, 24.02. 7:00 1031 + 0,8
Sa, 24.02. 1:00 1030 + 0,7
Fr, 23.02. 19:00 1028 + 0,2
Fr, 23.02. 13:00 1028 0,0
Fr, 23.02. 7:00 1027 + 0,8
Fr, 23.02. 1:00 1027 + 0,3
Ortszeit Luftdruck NN (hPa) Tendenz (hPa in 3 Std.)
Sa, 24.02. 22:30 1034 + 0,8
Sa, 24.02. 22:10 1034 keine Meldung
Sa, 24.02. 22:00 1034 + 0,8
Sa, 24.02. 21:50 1034 keine Meldung
Sa, 24.02. 21:40 1034 keine Meldung
Sa, 24.02. 21:30 1034 + 0,9
Sa, 24.02. 21:00 1034 + 1,1
Ortszeit Schneehöhe (cm)
Sa, 24.02. 19:00 0
Sa, 24.02. 13:00 0
Sa, 24.02. 7:00 0
Sa, 24.02. 1:00 0
Fr, 23.02. 19:00 0
Fr, 23.02. 13:00 0
Fr, 23.02. 7:00 0
Fr, 23.02. 1:00 0
Ortszeit Schneehöhe (cm)
Sa, 24.02. 22:30 -
Sa, 24.02. 22:10 -
Sa, 24.02. 22:00 0
Sa, 24.02. 21:50 -
Sa, 24.02. 21:40 -
Sa, 24.02. 21:30 -
Sa, 24.02. 21:00 -
Link zu dieser Seite / Seite empfehlen

Das Wetter in ...